Weather observations for the past three days for
Colorado Air and Space Port Airport
Imperial (Metric)
Date Time (mdt) Wind (mph) Vis. (mi.) Weather Sky Cond. Temperature (ºF) Relative Humidity Wind Chill (°F) Heat Index (°F) Pressure Precipitation (in)
Air Dwpt 6 hour altimeter (in) sea level (mb) 1 hr 3 hr 6 hr
Max. Min.
02 23:35 W 10 10.00 Fair CLR 64.6 53.8 68% 30.07 0.0
02 23:15 Calm 10.00 Fair CLR 65.8 53.2 64% 30.06 0.0
02 22:55 SE 6 10.00 Fair CLR 65.3 53.6 66% 30.07 0.0
02 22:35 E 6 10.00 Partly Cloudy SCT120 66.6 53.1 62% 30.07 0.0
02 22:15 NE 6 10.00 Fair CLR 66.6 54.7 66% 30.06 0.0
02 21:55 N 7 10.00 Partly Cloudy SCT120 67.3 54.7 64% 30.06 0.0
02 21:35 N 8 10.00 Overcast OVC110 68.7 54 59% 30.08 0.0
02 21:15 NW 6 10.00 Thunderstorm SCT055 SCT095 BKN110 70.5 50.9 50% 30.1 0.0
02 15:47 E 13 G 20 10.00 Fair CLR 89.6 39.2 17% 86 30.03 0.0
02 14:47 E 13 G 20 10.00 Fair CLR 89.6 39.2 17% 86 30.07 0.0
02 13:47 E 12 10.00 Partly Cloudy SCT085 87.8 39.2 18% 84 30.09 0.0
02 11:47 E 6 10.00 Fair CLR 84.2 35.6 18% 81 30.14 0.0
02 10:47 NE 6 10.00 Fair CLR 82.4 33.8 17% 80 30.15 0.0
02 09:47 NE 6 10.00 Fair CLR 80.6 39.2 23% 79 30.15 0.0
02 08:47 Calm 10.00 Fair CLR 75.2 44.6 34% 77 30.15 0.0
02 07:47 SW 5 10.00 A Few Clouds FEW100 71.6 44.6 38% 30.14 0.0
02 06:47 SW 6 10.00 Fair CLR 64.4 44.6 49% 30.13 0.0
02 06:35 SW 7 10.00 Fair CLR 64.8 44.2 48% 30.12 0.0
02 06:15 SW 7 10.00 Fair CLR 62.8 44.8 52% 30.12 0.0
02 05:55 SW 10 10.00 Partly Cloudy SCT120 66 43.9 69.3 62.8 45% 30.12 0.0
02 05:35 W 12 10.00 Partly Cloudy SCT120 63.3 45 51% 30.1 0.0
02 05:15 W 10 10.00 Fair CLR 63.9 44.6 50% 30.1 0.0
02 04:55 SW 9 10.00 Fair CLR 66 44.1 45% 30.1 0.0
02 04:35 SW 9 10.00 Fair CLR 65.7 44.6 47% 30.1 0.0
02 04:15 SW 9 10.00 Fair CLR 67.3 43.9 43% 30.1 0.0
02 03:55 SW 9 10.00 Fair CLR 66.4 44.6 46% 30.1 0.0
02 03:35 W 10 10.00 Fair CLR 64.2 45.1 50% 30.1 0.0
02 03:15 W 13 10.00 Fair CLR 64.6 45.5 50% 30.09 0.0
02 02:55 SW 10 10.00 Fair CLR 65.8 45.3 48% 30.1 0.0
02 02:35 W 10 10.00 Fair CLR 68.2 45 43% 30.1 0.0
02 02:15 SW 8 10.00 Fair CLR 68.4 45.3 44% 30.1 0.0
02 01:55 W 9 10.00 Fair CLR 67.1 47.3 49% 30.1 0.0
02 01:35 W 9 10.00 Fair CLR 68.2 48.2 49% 30.1 0.0
02 01:15 SW 13 10.00 Fair CLR 69.1 48.7 48% 30.09 0.0
02 00:55 SW 12 10.00 Fair CLR 65.5 52 62% 30.09 0.0
02 00:35 S 7 10.00 Fair CLR 65.1 51.8 62% 30.09 0.0
02 00:15 SE 7 10.00 Fair CLR 67.1 51.6 58% 30.09 0.0
01 23:55 S 9 10.00 Fair CLR 66.2 51.3 85.6 66 59% 30.09 0.0
01 23:35 S 6 10.00 Fair CLR 66.6 51.1 58% 30.11 0.0
01 23:15 S 7 10.00 Partly Cloudy SCT080 69.3 50.9 52% 30.11 0.0
01 22:55 S 7 10.00 Mostly Cloudy BKN080 70.7 50.4 49% 30.11 0.0
01 22:35 SE 5 10.00 Fair CLR 72 50 46% 30.11 0.0
01 22:15 SE 9 10.00 Fair CLR 73.6 50 44% 30.12 0.0
01 21:55 SE 13 10.00 Partly Cloudy SCT090 74.3 50 43% 30.11 0.0
01 21:35 S 8 10.00 Partly Cloudy SCT090 75.9 49.3 39% 78 30.12 0.0
01 21:15 SE 6 10.00 Partly Cloudy SCT090 73.8 49.5 42% 30.11 0.0
01 18:47 SE 6 10.00 Mostly Cloudy BKN120 82.4 42.8 25% 80 30.08 0.0
01 17:47 SE 13 10.00 Mostly Cloudy BKN100 84.2 39.2 20% 81 30.08 0.0
01 14:47 SE 7 10.00 Fair CLR 87.8 33.8 15% 84 30.1 0.0
01 13:47 SW 3 10.00 Fair CLR 84.2 35.6 18% 81 30.12 0.0
01 07:47 W 8 10.00 Fair CLR 62.6 57.2 83% 30.16 0.0
01 06:47 Calm 10.00 Fair CLR 62.6 57.2 83% 30.14 0.0
01 06:35 SW 3 10.00 Fair CLR 62.2 57.2 84% 30.14 0.0
01 06:15 NW 6 10.00 Fair CLR 61.7 57.2 85% 30.14 0.0
01 05:55 W 5 10.00 Fair CLR 61.7 57.2 64.8 61.3 85% 30.13 0.0
01 05:35 SW 3 10.00 Fair CLR 61.9 57.2 85% 30.13 0.0
01 05:15 S 5 10.00 Fair CLR 62.6 57.2 83% 30.13 0.0
01 04:55 Calm 10.00 Fair CLR 62.8 56.7 81% 30.13 0.0
01 04:35 SW 7 10.00 Fair CLR 63.9 56.5 77% 30.14 0.0
01 04:15 S 6 10.00 Partly Cloudy SCT090 61.7 57.2 85% 30.15 0.0
01 03:55 S 7 10.00 Partly Cloudy SCT090 61.3 57.2 86% 30.16 0.0
01 03:35 S 8 10.00 Fair CLR 61.9 57.4 85% 30.16 0.0
01 03:15 S 9 10.00 Fair CLR 62.8 57.7 84% 30.16 0.0
01 02:55 S 5 10.00 Fair CLR 62.6 58.3 86% 30.17 0.0
01 02:35 S 6 10.00 Partly Cloudy SCT110 64.4 58.1 80% 30.18 0.0
01 02:15 SW 6 10.00 Mostly Cloudy BKN100 64.8 58.1 79% 30.18 0.0
01 01:55 SW 6 10.00 Partly Cloudy SCT100 64.4 58.3 81% 30.18 0.0
01 01:35 SW 5 10.00 Partly Cloudy SCT120 63 59 87% 30.19 0.0
01 01:15 W 6 10.00 Partly Cloudy SCT120 63.5 58.8 85% 30.2 0.0
01 00:55 W 3 10.00 Fair CLR 64 58.5 82% 30.2 0.0
01 00:35 SW 3 10.00 Fair CLR 63.7 59 85% 30.19 0.0
01 00:15 S 6 10.00 Fair CLR 62.8 59.4 89% 30.2 0.0
31 23:55 S 5 10.00 Fair CLR 63.5 59 84.7 63.5 85% 30.2 0.0
31 23:35 SW 6 10.00 Fair CLR 63.7 58.6 84% 30.2 0.0
31 23:15 SW 12 10.00 Fair CLR 63.5 59 85% 30.19 0.0
31 22:55 N 3 10.00 Fair CLR 63.5 59 85% 30.18 0.0
31 22:35 NW 5 10.00 Fair CLR 63.9 59.5 86% 30.18 0.0
31 22:15 NW 7 10.00 Partly Cloudy SCT100 64.4 59.9 85% 30.18 0.0
31 21:55 W 8 10.00 Mostly Cloudy BKN100 65.5 60.3 83% 30.19 0.0
31 21:35 NW 6 10.00 Overcast BKN100 OVC120 66.2 59.4 79% 30.2 0.0
31 21:15 W 7 10.00 Overcast SCT049 SCT070 OVC090 66.6 58.8 76% 30.22 0.0
31 13:47 SE 6 10.00 Fair CLR 82.4 37.4 20% 80 30.2 0.0
31 10:47 E 3 10.00 Fair CLR 80.6 39.2 23% 79 30.22 0.0
31 09:47 E 3 10.00 Fair CLR 80.6 41 24% 79 30.22 0.0
31 08:47 S 3 10.00 Fair CLR 77 44.6 32% 78 30.21 0.0
31 06:47 SW 8 10.00 Fair CLR 64.4 46.4 52% 30.17 0.0
31 06:35 SW 7 10.00 Fair CLR 64.9 46.8 52% 30.16 0.0
31 06:15 SW 8 10.00 Fair CLR 65.7 46.6 50% 30.16 0.0
31 05:55 SW 10 10.00 Fair CLR 65.7 46.8 68.5 63.5 51% 30.16 0.0
31 05:35 SW 8 10.00 Fair CLR 65.7 47.1 51% 30.15 0.0
31 05:15 SW 10 10.00 Fair CLR 66.2 47.3 51% 30.15 0.0
31 04:55 SW 10 10.00 Fair CLR 66.2 47.5 51% 30.15 0.0
31 04:35 SW 9 10.00 Fair CLR 64.9 48.2 55% 30.15 0.0
31 04:15 S 10 10.00 Fair CLR 67.6 47.3 48% 30.15 0.0
31 03:55 SW 12 10.00 Fair CLR 67.3 48.2 51% 30.14 0.0
31 03:35 SW 10 10.00 Fair CLR 66.2 49.3 55% 30.14 0.0
31 03:15 SW 10 10.00 Fair CLR 67.3 48.6 51% 30.14 0.0
31 02:55 SW 9 10.00 Fair CLR 66.4 49.3 54% 30.13 0.0
31 02:35 SW 10 10.00 Fair CLR 66.2 49.3 55% 30.14 0.0
31 02:15 SW 10 10.00 Fair CLR 65.8 50 57% 30.14 0.0
31 01:55 SW 12 10.00 Fair CLR 65.8 50.2 57% 30.15 0.0
31 01:35 S 10 10.00 Fair CLR 63.5 51.8 66% 30.15 0.0
31 01:15 S 9 10.00 Fair CLR 66.9 50.2 55% 30.16 0.0
31 00:55 S 8 10.00 Fair CLR 64.6 51.8 63% 30.17 0.0
31 00:35 S 7 10.00 Partly Cloudy SCT120 66.7 51.8 59% 30.17 0.0
31 00:15 SW 5 10.00 Fair CLR 68.5 51.4 55% 30.18 0.0
30 23:55 S 5 10.00 Partly Cloudy SCT090 68 54.3 74.3 66.9 62% 30.18 0.0
Date Time (mdt) Wind (mph) Vis. (mi.) Weather Sky Cond. Air Dwpt Max. Min. Relative Humidity Wind Chill (°F) Heat Index (°F) altimeter (in) sea level (mb) 1 hr 3 hr 6 hr
6 hour
Temperature (ºF) Pressure Precipitation (in)